Time;durP1;ratioP1;P1;durP2;ratioP2;P2;SDS_P1;SDS_P2;PMS_P1;PMS_P2;Temp;Humidity;BMP_temperature;BMP_pressure;BME280_temperature;BME280_humidity;BME280_pressure;Samples;Min_cycle;Max_cycle;Signal;HPM_P1;HPM_P2
2023/12/20 00:03:38;;;;;;;8.67;7.37;;;;;;;11.18;44.84;99732.03;10360718;28;20295;-75
2023/12/20 00:08:44;;;;;;;8.73;6.87;;;;;;;10.57;45.55;99823.28;10367311;28;20263;-75
2023/12/20 00:13:45;;;;;;;8.17;7.07;;;;;;;9.45;45.95;100018.84;10339322;28;20716;-74
2023/12/20 00:18:52;;;;;;;9.23;7.80;;;;;;;10.32;46.25;99795.97;10350800;28;20233;-75
2023/12/20 00:23:54;;;;;;;7.90;6.10;;;;;;;9.60;47.23;99842.59;10361059;28;20320;-75
2023/12/20 00:28:55;;;;;;;7.47;6.73;;;;;;;9.29;46.93;99856.81;10357499;28;20234;-75
2023/12/20 00:33:57;;;;;;;6.97;6.13;;;;;;;8.03;48.96;99948.84;10361770;28;20271;-75
2023/12/20 00:38:59;;;;;;;7.47;6.63;;;;;;;9.03;48.75;99751.16;10349188;28;20617;-75
2023/12/20 00:44:00;;;;;;;9.93;6.80;;;;;;;9.76;47.89;99722.25;10346465;28;20766;-75
2023/12/20 00:49:02;;;;;;;7.40;6.30;;;;;;;9.96;46.92;99792.09;10355740;28;20276;-73
2023/12/20 00:54:04;;;;;;;9.63;6.53;;;;;;;10.37;45.23;99921.97;10336952;28;20292;-75
2023/12/20 00:59:06;;;;;;;7.90;7.10;;;;;;;9.06;47.51;99944.00;10355234;28;20317;-73
2023/12/20 01:04:07;;;;;;;7.73;6.60;;;;;;;8.22;48.54;100026.84;10341497;28;20238;-73
2023/12/20 01:09:09;;;;;;;7.70;6.23;;;;;;;11.36;45.12;99795.91;10339408;28;20225;-74
2023/12/20 01:14:11;;;;;;;8.03;6.93;;;;;;;7.78;50.11;99921.25;10343160;28;20559;-75
2023/12/20 01:19:13;;;;;;;7.70;6.60;;;;;;;11.44;45.08;99710.06;10352600;28;20540;-74
2023/12/20 01:24:15;;;;;;;7.17;6.47;;;;;;;10.19;47.59;99697.66;10337361;28;20221;-73
2023/12/20 01:29:17;;;;;;;7.93;6.50;;;;;;;10.57;46.10;99748.38;10343756;28;20695;-74
2023/12/20 01:34:18;;;;;;;9.17;7.03;;;;;;;10.72;45.78;99785.84;10338515;28;20236;-74
2023/12/20 01:39:20;;;;;;;7.73;6.37;;;;;;;11.81;43.66;99831.47;10347782;28;20230;-74
2023/12/20 01:44:30;;;;;;;7.13;6.43;;;;;;;12.33;43.04;99793.69;10362386;28;20241;-74
2023/12/20 01:49:32;;;;;;;7.83;7.03;;;;;;;11.36;45.27;99739.66;10341896;28;20226;-74
2023/12/20 01:54:35;;;;;;;7.60;6.63;;;;;;;11.39;44.92;99824.19;10354289;28;20763;-74
2023/12/20 01:59:39;;;;;;;8.80;7.10;;;;;;;10.43;46.01;99901.69;10367364;28;20230;-73
2023/12/20 02:04:41;;;;;;;9.13;6.60;;;;;;;12.22;43.75;99791.59;10336635;28;20318;-74
2023/12/20 02:09:43;;;;;;;9.40;7.27;;;;;;;11.83;44.70;99747.31;10334847;28;20321;-75
2023/12/20 02:14:45;;;;;;;8.90;6.80;;;;;;;12.19;43.79;99814.25;10366789;28;20237;-73
2023/12/20 02:19:46;;;;;;;8.40;6.77;;;;;;;10.71;45.32;99837.69;10352787;28;20300;-73
2023/12/20 02:24:49;;;;;;;8.13;6.70;;;;;;;12.49;43.06;99831.00;10352756;28;20234;-75
2023/12/20 02:29:51;;;;;;;7.93;6.80;;;;;;;12.99;42.40;99847.03;10364918;28;20240;-75
2023/12/20 02:34:54;;;;;;;9.67;7.93;;;;;;;13.39;41.34;99854.44;10340392;28;20225;-75
2023/12/20 02:39:56;;;;;;;7.93;7.00;;;;;;;12.90;42.21;99923.41;10337400;28;20241;-74
2023/12/20 02:44:58;;;;;;;7.00;6.30;;;;;;;12.96;42.23;99897.59;10341235;28;20634;-75
2023/12/20 02:49:59;;;;;;;7.57;6.47;;;;;;;12.16;43.06;99909.38;10330476;28;20230;-74
2023/12/20 02:55:01;;;;;;;7.03;6.20;;;;;;;12.33;42.77;99912.63;10344466;28;20229;-75
2023/12/20 03:00:03;;;;;;;7.33;6.50;;;;;;;12.66;43.25;99815.44;10348528;28;20715;-75
2023/12/20 03:05:05;;;;;;;7.37;6.30;;;;;;;12.07;44.44;99795.16;10341710;28;20238;-75
2023/12/20 03:10:09;;;;;;;7.27;5.97;;;;;;;12.50;43.18;99824.63;10346304;28;20234;-75
2023/12/20 03:15:21;;;;;;;6.97;5.73;;;;;;;11.16;46.12;99749.34;10365284;28;20234;-75
2023/12/20 03:20:22;;;;;;;7.03;5.53;;;;;;;13.32;42.67;99764.91;10367166;28;20286;-75
2023/12/20 03:25:24;;;;;;;6.77;5.60;;;;;;;12.19;43.37;99892.03;10336623;28;20244;-75
2023/12/20 03:30:26;;;;;;;7.50;6.40;;;;;;;10.86;44.58;100052.72;10347496;28;20237;-74
2023/12/20 03:35:27;;;;;;;6.40;5.57;;;;;;;12.89;42.47;99905.59;10344397;28;20239;-75
2023/12/20 03:40:29;;;;;;;7.07;5.60;;;;;;;14.07;41.23;99791.69;10349513;28;20593;-74
2023/12/20 03:45:31;;;;;;;5.70;5.13;;;;;;;11.94;43.01;99990.81;10360404;28;20325;-75
2023/12/20 03:50:34;;;;;;;5.63;5.13;;;;;;;11.33;44.91;99965.06;10362263;28;20245;-74
2023/12/20 03:55:35;;;;;;;6.57;5.53;;;;;;;12.37;42.74;99939.91;10365088;28;20427;-75
2023/12/20 04:00:37;;;;;;;6.40;5.80;;;;;;;12.32;43.54;99861.81;10351665;28;20232;-74
2023/12/20 04:05:40;;;;;;;6.87;5.43;;;;;;;12.31;43.36;99878.94;10364563;28;20237;-74
2023/12/20 04:10:42;;;;;;;6.57;5.90;;;;;;;9.36;47.57;99964.59;10355526;28;20285;-75
2023/12/20 04:15:44;;;;;;;7.47;5.53;;;;;;;11.74;44.52;99928.91;10365263;28;20248;-75
2023/12/20 04:20:45;;;;;;;6.57;5.70;;;;;;;9.54;46.82;100028.47;10356122;28;20628;-75
2023/12/20 04:25:47;;;;;;;5.70;5.20;;;;;;;11.51;43.80;100034.38;10397409;28;20230;-75
2023/12/20 04:30:49;;;;;;;7.00;5.30;;;;;;;12.75;42.88;99891.28;10353997;28;20242;-75
2023/12/20 04:35:51;;;;;;;5.13;4.63;;;;;;;13.50;41.86;99864.63;10350883;28;20226;-82
2023/12/20 04:40:53;;;;;;;5.60;5.10;;;;;;;11.99;43.35;99983.03;10371702;28;20242;-76
2023/12/20 04:45:54;;;;;;;5.10;4.33;;;;;;;12.34;43.55;99908.06;10351881;28;20237;-76
2023/12/20 04:50:56;;;;;;;4.97;4.30;;;;;;;11.73;43.88;100023.78;10350328;28;20276;-76
2023/12/20 04:55:58;;;;;;;4.37;3.93;;;;;;;13.67;41.80;99865.91;10352686;28;20510;-75
2023/12/20 05:00:59;;;;;;;4.00;3.67;;;;;;;11.26;44.83;99981.03;10343197;28;20238;-76
2023/12/20 05:06:01;;;;;;;3.63;3.40;;;;;;;13.08;42.64;99870.00;10456087;28;20322;-76
2023/12/20 05:11:04;;;;;;;3.97;3.67;;;;;;;12.41;43.13;99938.47;10524119;28;20258;-75
2023/12/20 05:16:06;;;;;;;4.60;4.10;;;;;;;12.72;42.18;100012.47;10524761;28;20301;-76
2023/12/20 05:21:07;;;;;;;4.77;4.37;;;;;;;11.91;43.79;100053.72;10528654;28;20295;-74
2023/12/20 05:26:09;;;;;;;4.53;4.13;;;;;;;13.90;41.40;99963.41;10524087;28;20237;-74
2023/12/20 05:31:11;;;;;;;4.67;4.17;;;;;;;11.99;44.86;99878.44;10522657;28;20246;-75
2023/12/20 05:36:14;;;;;;;4.93;4.53;;;;;;;13.32;42.29;99936.91;10522934;28;20222;-74
2023/12/20 05:41:16;;;;;;;4.67;4.27;;;;;;;14.51;41.05;99874.50;10511363;28;20239;-75
2023/12/20 05:46:18;;;;;;;4.63;4.23;;;;;;;13.66;41.84;99911.81;10527688;28;20226;-75
2023/12/20 05:51:20;;;;;;;4.83;4.17;;;;;;;13.15;42.92;99934.50;10465509;28;20697;-75
2023/12/20 05:56:22;;;;;;;4.83;4.30;;;;;;;13.48;41.73;99966.16;10519114;28;20951;-75
2023/12/20 06:01:23;;;;;;;4.93;4.53;;;;;;;13.17;42.41;99939.69;10518243;28;20321;-75
2023/12/20 06:06:25;;;;;;;4.93;4.50;;;;;;;13.54;41.29;99948.38;10412510;28;20708;-75
2023/12/20 06:11:27;;;;;;;5.77;4.90;;;;;;;12.28;43.29;99989.31;10399162;28;20238;-75
2023/12/20 06:16:29;;;;;;;4.93;4.40;;;;;;;11.57;44.32;99992.59;10363922;28;20789;-75
2023/12/20 06:21:30;;;;;;;4.80;4.40;;;;;;;14.22;40.75;99937.63;10365705;28;20267;-75
2023/12/20 06:26:32;;;;;;;5.00;4.57;;;;;;;12.82;42.82;99945.03;10345677;27;20405;-76
2023/12/20 06:31:34;;;;;;;4.70;3.93;;;;;;;13.85;40.14;100074.28;9494435;28;10000524;-75
2023/12/20 06:43:01;;;;;;;4.87;4.47;;;;;;;17.18;36.46;99972.16;10387100;28;20220;-74
2023/12/20 06:48:16;;;;;;;4.57;4.17;;;;;;;14.22;40.02;100015.69;10383253;28;20244;-74
2023/12/20 06:53:20;;;;;;;4.40;4.00;;;;;;;10.67;44.07;100168.28;10382651;28;20323;-77
2023/12/20 06:58:22;;;;;;;3.80;3.50;;;;;;;13.02;41.59;100028.44;10390030;28;20387;-77
2023/12/20 07:03:24;;;;;;;5.20;4.70;;;;;;;12.98;41.34;100016.44;10393390;28;20287;-79
2023/12/20 07:08:25;;;;;;;5.63;5.13;;;;;;;12.09;42.02;100077.44;10390041;28;20232;-78
2023/12/20 07:13:27;;;;;;;4.73;4.23;;;;;;;10.18;45.65;100019.56;10385783;28;20773;-78
2023/12/20 07:18:29;;;;;;;5.90;5.00;;;;;;;8.61;48.98;99954.22;10381463;28;20259;-78
2023/12/20 07:23:31;;;;;;;5.23;4.70;;;;;;;9.41;47.34;99854.56;10387687;28;20501;-77
2023/12/20 07:28:33;;;;;;;4.97;4.57;;;;;;;10.25;44.77;99990.25;10402541;28;20248;-78
2023/12/20 07:33:35;;;;;;;4.93;4.50;;;;;;;11.95;41.65;100019.31;10407083;28;20796;-79
2023/12/20 07:38:41;;;;;;;4.00;3.70;;;;;;;13.25;39.70;100023.66;10407454;28;20231;-77
2023/12/20 07:43:43;;;;;;;4.67;4.20;;;;;;;11.53;41.03;100174.38;10400989;28;20267;-78
2023/12/20 07:48:46;;;;;;;3.73;3.43;;;;;;;10.84;41.70;100158.34;10397618;28;20319;-78
2023/12/20 07:53:48;;;;;;;4.20;3.90;;;;;;;11.56;40.29;100119.59;9554045;28;10000677;-78
2023/12/20 07:58:50;;;;;;;4.70;3.80;;;;;;;10.61;42.34;100076.13;10403865;28;20260;-77
2023/12/20 08:03:54;;;;;;;8.23;4.00;;;;;;;11.59;40.91;100167.44;10401649;28;20245;-77
2023/12/20 08:08:57;;;;;;;5.13;3.93;;;;;;;12.37;40.13;100133.09;10400356;28;20735;-78
2023/12/20 08:14:07;;;;;;;7.57;4.30;;;;;;;10.90;41.26;100192.44;10402965;28;20241;-77
2023/12/20 08:19:08;;;;;;;5.07;4.27;;;;;;;11.94;41.16;100064.03;10393095;28;20667;-78
2023/12/20 08:24:10;;;;;;;7.87;4.73;;;;;;;13.63;38.83;100106.66;10367038;28;20280;-78
2023/12/20 08:29:15;;;;;;;5.30;4.33;;;;;;;13.11;39.57;100060.34;10395416;28;20237;-77
2023/12/20 08:34:17;;;;;;;5.17;3.70;;;;;;;12.66;39.96;100145.66;10390177;28;20775;-77
2023/12/20 08:39:19;;;;;;;6.27;3.80;;;;;;;10.48;42.73;100194.44;10393120;28;20233;-77
2023/12/20 08:44:22;;;;;;;6.73;3.87;;;;;;;11.88;40.50;100211.44;10399712;28;20276;-77
2023/12/20 08:49:24;;;;;;;5.23;3.90;;;;;;;12.86;40.69;100084.09;10399183;28;20585;-78
2023/12/20 08:54:25;;;;;;;6.20;3.87;;;;;;;11.43;42.12;100125.56;10395095;28;20230;-78
2023/12/20 08:59:27;;;;;;;9.60;4.40;;;;;;;10.75;42.71;100168.25;10394086;28;20240;-78
2023/12/20 09:04:29;;;;;;;7.10;3.63;;;;;;;12.46;40.87;100067.53;10392069;28;20731;-78
2023/12/20 09:09:32;;;;;;;4.33;3.93;;;;;;;11.35;42.03;100190.75;10402077;28;20236;-78
2023/12/20 09:14:34;;;;;;;5.40;3.70;;;;;;;10.18;43.88;100216.63;10391708;28;20685;-78
2023/12/20 09:19:35;;;;;;;3.93;3.50;;;;;;;10.88;43.07;100154.28;10405339;28;20619;-79
2023/12/20 09:24:38;;;;;;;4.27;3.93;;;;;;;11.56;43.14;100028.47;10394959;28;20228;-79
2023/12/20 09:29:40;;;;;;;5.43;3.93;;;;;;;11.70;43.10;100054.44;10399391;28;20236;-79
2023/12/20 09:34:41;;;;;;;6.07;3.73;;;;;;;10.97;43.46;100141.69;10400460;28;20279;-78
2023/12/20 09:39:43;;;;;;;5.40;3.70;;;;;;;10.98;44.12;100021.00;10388638;28;20247;-79
2023/12/20 09:44:46;;;;;;;6.10;4.53;;;;;;;11.07;43.74;100057.41;10393964;28;20628;-78
2023/12/20 09:49:50;;;;;;;7.63;5.03;;;;;;;11.03;44.50;99981.09;10393406;28;20769;-79
2023/12/20 09:54:54;;;;;;;5.07;4.20;;;;;;;11.38;43.35;100052.94;10393397;28;20228;-80
2023/12/20 09:59:56;;;;;;;4.90;3.60;;;;;;;10.31;44.67;100067.13;10396106;28;20720;-79
2023/12/20 10:04:59;;;;;;;8.73;4.13;;;;;;;11.30;43.91;99954.72;10388910;28;20249;-78
2023/12/20 10:10:02;;;;;;;8.63;4.47;;;;;;;9.49;45.50;100094.94;10387051;28;20339;-78
2023/12/20 10:15:04;;;;;;;6.07;4.47;;;;;;;10.67;43.64;100062.03;10398963;28;20225;-78
2023/12/20 10:20:09;;;;;;;7.47;4.50;;;;;;;10.76;43.62;100072.72;10397169;28;20250;-78
2023/12/20 10:25:12;;;;;;;4.57;4.17;;;;;;;10.35;44.07;100072.97;10405758;28;20625;-78
2023/12/20 10:30:14;;;;;;;4.83;3.80;;;;;;;10.03;44.18;100088.16;10374222;28;20719;-77
2023/12/20 10:35:16;;;;;;;7.77;3.97;;;;;;;11.04;42.88;100052.41;10396651;28;20212;-79
2023/12/20 10:40:18;;;;;;;6.50;4.33;;;;;;;10.79;42.97;100112.53;10376943;28;20283;-78
2023/12/20 10:45:20;;;;;;;5.73;4.73;;;;;;;11.66;42.66;99982.63;10392568;28;20319;-78
2023/12/20 10:50:22;;;;;;;6.63;4.27;;;;;;;11.40;42.57;100064.28;10399289;28;20654;-78
2023/12/20 10:55:24;;;;;;;8.03;5.17;;;;;;;11.70;42.13;100053.63;10399546;28;20227;-77
2023/12/20 11:06:39;;;;;;;9.80;4.60;;;;;;;8.85;48.26;99875.97;10527736;27;20833;-78
2023/12/20 11:12:09;;;;;;;4.80;4.30;;;;;;;8.69;48.22;99895.50;10451198;28;20240;-77
2023/12/20 11:17:13;;;;;;;12.33;4.87;;;;;;;9.25;46.37;99943.63;10505881;28;20304;-77
2023/12/20 11:22:15;;;;;;;6.70;4.83;;;;;;;10.64;45.14;99872.38;10506883;28;20226;-77
2023/12/20 11:27:19;;;;;;;5.93;4.50;;;;;;;10.51;45.16;99838.25;10493257;28;20610;-77
2023/12/20 11:32:29;;;;;;;6.07;3.87;;;;;;;10.14;44.43;100036.94;10497079;28;20235;-78
2023/12/20 11:37:34;;;;;;;10.60;4.60;;;;;;;9.26;46.49;99990.66;10506544;28;20288;-78
2023/12/20 11:42:45;;;;;;;12.20;4.87;;;;;;;9.95;45.30;99963.38;10502375;28;20228;-78
2023/12/20 11:47:49;;;;;;;9.47;4.43;;;;;;;9.84;45.01;99959.25;10505343;28;20231;-78
2023/12/20 11:52:53;;;;;;;7.40;4.77;;;;;;;10.80;43.31;100064.16;10507706;28;20744;-79
2023/12/20 11:57:56;;;;;;;6.80;4.60;;;;;;;9.76;45.57;99930.69;10505052;28;20277;-77
2023/12/20 12:02:58;;;;;;;6.60;4.37;;;;;;;9.82;44.85;100045.91;10502452;28;20610;-77
2023/12/20 12:08:00;;;;;;;6.77;3.77;;;;;;;10.62;43.25;100043.00;10506627;28;20226;-78
2023/12/20 12:13:02;;;;;;;7.60;4.27;;;;;;;9.93;44.81;99965.38;10606658;27;20274;-77
2023/12/20 12:18:05;;;;;;;9.23;3.97;;;;;;;8.97;45.23;100116.66;10583835;27;20240;-79
2023/12/20 12:23:06;;;;;;;4.60;3.40;;;;;;;10.20;44.29;100000.66;10575810;27;20230;-77
2023/12/20 12:28:08;;;;;;;10.50;4.37;;;;;;;10.52;42.98;100063.81;10564377;27;20267;-77
2023/12/20 12:33:11;;;;;;;6.30;3.40;;;;;;;9.39;44.83;100032.88;10561947;27;20282;-77
2023/12/20 12:38:13;;;;;;;9.63;4.20;;;;;;;10.74;43.89;99912.28;10585000;27;20485;-78
2023/12/20 12:43:14;;;;;;;9.73;5.70;;;;;;;9.87;44.08;100076.53;10569200;27;20240;-77
2023/12/20 12:48:16;;;;;;;13.23;7.90;;;;;;;11.25;43.12;99898.19;10570865;27;20786;-79
2023/12/20 12:53:18;;;;;;;12.77;4.53;;;;;;;11.07;42.80;99961.00;10573714;27;20221;-79
2023/12/20 12:58:19;;;;;;;9.33;5.27;;;;;;;9.94;44.77;99946.50;10573421;27;20478;-78
2023/12/20 13:03:21;;;;;;;6.60;4.00;;;;;;;11.17;43.45;99880.38;10568370;27;20229;-78
2023/12/20 13:08:23;;;;;;;9.10;4.50;;;;;;;9.84;44.59;100010.03;10571468;27;20236;-78
2023/12/20 13:13:24;;;;;;;8.37;3.87;;;;;;;10.50;43.43;99986.41;10557596;27;20225;-78
2023/12/20 13:18:26;;;;;;;11.70;4.27;;;;;;;10.00;45.14;99909.38;10564977;27;20226;-79
2023/12/20 13:23:28;;;;;;;8.20;3.70;;;;;;;10.56;44.89;99829.66;10551445;27;20226;-78
2023/12/20 13:28:30;;;;;;;8.07;3.80;;;;;;;11.58;42.45;99895.09;10570781;27;20233;-77
2023/12/20 13:33:31;;;;;;;5.63;3.87;;;;;;;10.72;42.93;100041.94;10566136;27;20725;-78
2023/12/20 13:38:33;;;;;;;9.23;3.73;;;;;;;10.44;43.56;100029.09;10576796;27;20233;-79
2023/12/20 13:43:35;;;;;;;7.17;3.73;;;;;;;9.93;43.70;100077.66;10572328;27;20381;-77
2023/12/20 13:48:37;;;;;;;10.10;4.10;;;;;;;11.35;42.61;99911.31;10560336;27;20233;-79
2023/12/20 13:53:39;;;;;;;5.83;3.50;;;;;;;9.42;44.72;100050.41;10572704;27;20226;-78
2023/12/20 13:58:46;;;;;;;6.13;3.57;;;;;;;9.69;44.55;99987.69;10566361;27;20234;-77
2023/12/20 14:03:48;;;;;;;6.33;4.20;;;;;;;11.38;42.90;99876.94;10581530;27;20238;-79
2023/12/20 14:08:49;;;;;;;8.03;4.10;;;;;;;10.64;43.34;99959.88;10545305;27;20231;-78
2023/12/20 14:13:51;;;;;;;9.73;3.90;;;;;;;11.52;42.05;99928.81;10569677;27;20240;-78
2023/12/20 14:18:52;;;;;;;9.17;4.80;;;;;;;10.45;44.05;99871.06;10572222;27;20615;-77
2023/12/20 14:23:54;;;;;;;6.67;4.17;;;;;;;9.97;44.13;100041.53;10569523;27;20237;-77
2023/12/20 14:28:56;;;;;;;9.30;3.50;;;;;;;11.12;42.89;99936.34;10558693;27;20316;-78
2023/12/20 14:33:58;;;;;;;10.13;3.87;;;;;;;9.75;44.88;99984.31;10552481;27;20606;-78
2023/12/20 14:39:01;;;;;;;6.97;3.73;;;;;;;11.59;42.47;99880.66;10552977;27;20249;-77
2023/12/20 14:44:04;;;;;;;4.50;3.17;;;;;;;10.70;44.07;99893.06;10576653;27;20321;-77
2023/12/20 14:49:07;;;;;;;7.53;3.77;;;;;;;10.91;44.07;99901.44;10538275;27;20224;-73
2023/12/20 14:54:10;;;;;;;6.57;4.03;;;;;;;11.25;43.06;99893.69;10568999;27;20329;-74
2023/12/20 14:59:12;;;;;;;10.17;4.07;;;;;;;11.49;43.44;99839.94;10567438;27;20265;-74
2023/12/20 15:04:13;;;;;;;9.60;4.00;;;;;;;10.94;43.73;99861.72;10569389;28;20651;-74
2023/12/20 15:09:15;;;;;;;4.00;3.30;;;;;;;9.52;44.33;100083.09;10566784;28;20314;-74
2023/12/20 15:14:19;;;;;;;9.77;4.30;;;;;;;9.43;45.04;100036.84;10573767;28;20221;-74
2023/12/20 15:19:21;;;;;;;5.37;3.57;;;;;;;9.94;44.30;99945.69;10555553;28;20324;-75
2023/12/20 15:24:28;;;;;;;8.17;4.40;;;;;;;8.95;45.42;99948.69;10560666;28;20288;-76
2023/12/20 15:29:30;;;;;;;4.10;3.33;;;;;;;9.46;45.38;99935.00;10556314;28;20313;-74
2023/12/20 15:34:32;;;;;;;5.80;3.57;;;;;;;10.02;45.08;99824.47;10572820;28;20325;-73
2023/12/20 15:39:34;;;;;;;6.60;3.70;;;;;;;10.03;43.98;99978.53;10570123;28;20234;-75
2023/12/20 15:44:36;;;;;;;8.73;4.03;;;;;;;9.95;44.32;99966.03;10565503;28;20271;-76
2023/12/20 15:49:38;;;;;;;4.10;3.37;;;;;;;11.47;42.64;99826.72;10573143;27;20221;-74
2023/12/20 15:54:41;;;;;;;5.03;3.67;;;;;;;10.75;43.04;99905.09;10572802;27;20859;-74
2023/12/20 15:59:43;;;;;;;4.40;3.03;;;;;;;11.13;42.54;99908.53;10582650;27;20302;-77
2023/12/20 16:04:45;;;;;;;6.47;3.43;;;;;;;10.55;43.39;99908.28;10573610;27;20248;-75
2023/12/20 16:09:47;;;;;;;5.57;3.30;;;;;;;11.94;40.83;99950.59;10577229;27;20245;-75
2023/12/20 16:14:49;;;;;;;6.73;3.67;;;;;;;12.54;40.50;99908.28;10580310;27;20222;-74
2023/12/20 16:19:51;;;;;;;4.70;3.40;;;;;;;11.64;41.21;99958.69;10574766;27;20236;-75
2023/12/20 16:24:53;;;;;;;4.57;3.60;;;;;;;9.24;45.47;99859.16;10583563;27;20226;-76
2023/12/20 16:29:57;;;;;;;5.37;3.20;;;;;;;8.95;46.10;99841.09;10575352;27;20284;-79
2023/12/20 16:35:01;;;;;;;4.03;3.47;;;;;;;9.09;45.42;99917.78;10559452;27;20241;-74
2023/12/20 16:40:05;;;;;;;4.53;3.33;;;;;;;9.48;45.53;99865.38;10564609;27;20684;-73
2023/12/20 16:45:07;;;;;;;5.90;3.80;;;;;;;11.30;42.55;99866.31;10559745;27;20321;-77
2023/12/20 16:50:09;;;;;;;6.20;3.90;;;;;;;10.43;43.79;99902.53;10580078;27;20255;-76
2023/12/20 16:55:11;;;;;;;3.60;3.30;;;;;;;11.36;42.28;99921.00;10580890;27;20711;-77
2023/12/20 17:00:14;;;;;;;3.40;3.03;;;;;;;8.03;46.64;99996.81;10580775;27;20229;-77
2023/12/20 17:05:15;;;;;;;6.57;3.10;;;;;;;11.60;42.76;99885.00;10564050;27;20288;-74
2023/12/20 17:10:18;;;;;;;5.13;3.20;;;;;;;9.88;45.68;99786.81;10556932;27;20321;-78
2023/12/20 17:15:19;;;;;;;6.17;3.80;;;;;;;11.25;43.26;99813.31;10572228;27;20195;-77
2023/12/20 17:20:21;;;;;;;4.93;2.93;;;;;;;8.93;46.20;99913.34;10579186;27;20226;-77
2023/12/20 17:25:23;;;;;;;3.47;3.17;;;;;;;10.33;43.54;99956.25;10571623;27;20622;-77
2023/12/20 17:30:24;;;;;;;5.33;3.67;;;;;;;11.19;42.92;99822.09;10579102;27;20319;-76
2023/12/20 17:35:26;;;;;;;4.27;2.60;;;;;;;9.31;45.03;99912.72;10573604;27;20210;-78
2023/12/20 17:40:28;;;;;;;5.93;3.70;;;;;;;10.30;43.71;99902.31;10572579;27;20843;-75
2023/12/20 17:45:29;;;;;;;6.93;3.40;;;;;;;10.57;43.57;99930.31;10577704;27;20229;-73
2023/12/20 17:50:31;;;;;;;5.30;3.33;;;;;;;9.48;45.22;99900.94;10581248;27;20228;-78
2023/12/20 17:55:33;;;;;;;6.27;3.53;;;;;;;11.04;43.32;99848.88;10578507;27;20256;-79
2023/12/20 18:00:35;;;;;;;6.23;3.33;;;;;;;10.41;44.08;99875.13;10579052;27;20236;-79
2023/12/20 18:05:37;;;;;;;4.50;3.40;;;;;;;11.39;42.22;99990.31;10564734;27;20280;-78
2023/12/20 18:10:39;;;;;;;4.40;3.40;;;;;;;10.62;43.05;99943.16;10574853;27;20588;-78
2023/12/20 18:15:40;;;;;;;4.27;3.80;;;;;;;12.14;41.27;99891.78;10571186;27;20233;-79
2023/12/20 18:20:42;;;;;;;7.23;4.33;;;;;;;11.15;42.23;99972.63;10583756;27;20253;-79
2023/12/20 18:25:44;;;;;;;3.60;3.17;;;;;;;11.15;42.58;99954.69;10577840;27;20261;-79
2023/12/20 18:30:46;;;;;;;4.40;3.77;;;;;;;11.19;42.53;99923.88;10579570;27;20230;-79
2023/12/20 18:35:47;;;;;;;4.13;3.53;;;;;;;10.52;42.80;100050.44;10569806;27;20226;-79
2023/12/20 18:40:49;;;;;;;6.97;3.23;;;;;;;10.10;44.21;99984.84;10578277;27;20698;-78
2023/12/20 18:45:51;;;;;;;3.67;3.37;;;;;;;10.50;43.81;99938.25;10565387;27;20301;-80
2023/12/20 18:50:53;;;;;;;3.47;2.73;;;;;;;10.30;43.73;99967.31;10555536;27;20244;-78
2023/12/20 18:55:55;;;;;;;7.37;3.67;;;;;;;10.22;44.68;99867.59;10581359;27;20299;-78
2023/12/20 19:00:57;;;;;;;5.13;3.00;;;;;;;9.56;45.36;99884.88;10577916;27;20291;-78
2023/12/20 19:06:01;;;;;;;4.50;3.30;;;;;;;9.89;46.19;99751.06;10579775;28;20620;-79
2023/12/20 19:11:03;;;;;;;4.80;3.83;;;;;;;9.90;44.52;99939.81;10549477;28;20673;-78
2023/12/20 19:16:05;;;;;;;5.83;3.60;;;;;;;10.35;45.40;99840.25;10555925;28;20279;-79
2023/12/20 19:21:07;;;;;;;3.83;3.47;;;;;;;8.57;48.37;99747.47;10573685;28;20708;-78
2023/12/20 19:26:12;;;;;;;6.63;3.73;;;;;;;10.73;44.36;99819.63;10552443;27;20592;-78
2023/12/20 19:31:14;;;;;;;4.37;3.43;;;;;;;10.69;45.09;99674.63;10574492;27;20325;-74
2023/12/20 19:36:16;;;;;;;7.77;3.97;;;;;;;10.09;45.18;99850.31;10558316;27;20226;-75
2023/12/20 19:41:18;;;;;;;3.97;3.67;;;;;;;9.41;46.66;99723.69;10551086;27;20259;-75
2023/12/20 19:46:19;;;;;;;3.60;3.30;;;;;;;10.85;44.83;99680.81;10572689;27;20458;-73
2023/12/20 19:51:21;;;;;;;6.13;3.63;;;;;;;9.63;45.13;99926.94;10530344;27;20240;-68
2023/12/20 19:56:23;;;;;;;3.27;2.97;;;;;;;10.65;45.09;99716.16;10528248;27;21229;-70
2023/12/20 20:01:24;;;;;;;4.70;3.30;;;;;;;10.33;45.82;99704.84;10574843;27;20239;-71
2023/12/20 20:06:26;;;;;;;2.97;2.73;;;;;;;7.55;48.21;99939.66;10536952;28;20549;-71
2023/12/20 20:11:29;;;;;;;4.73;3.80;;;;;;;9.06;47.31;99720.59;10540726;28;20724;-72
2023/12/20 20:16:36;;;;;;;4.87;3.67;;;;;;;9.46;46.07;99796.13;10518954;28;20847;-71
2023/12/20 20:21:38;;;;;;;6.37;3.33;;;;;;;10.70;44.37;99705.72;10535453;28;20267;-70
2023/12/20 20:26:39;;;;;;;7.07;3.10;;;;;;;7.67;47.04;99982.81;10529172;28;20351;-70
2023/12/20 20:31:41;;;;;;;4.07;3.20;;;;;;;10.83;43.80;99766.66;10536968;28;20789;-71
2023/12/20 20:36:43;;;;;;;4.40;2.93;;;;;;;9.21;47.25;99667.25;10540072;28;20234;-71
2023/12/20 20:41:45;;;;;;;5.07;3.30;;;;;;;10.61;44.11;99829.94;10539564;28;20254;-72
2023/12/20 20:46:46;;;;;;;4.37;3.37;;;;;;;10.36;44.64;99710.81;10535715;28;20324;-72
2023/12/20 20:51:48;;;;;;;5.70;3.80;;;;;;;10.31;44.08;99818.38;10535662;28;20223;-72
2023/12/20 20:56:50;;;;;;;4.50;3.30;;;;;;;10.20;46.05;99661.03;10532498;28;20231;-72
2023/12/20 21:01:51;;;;;;;7.37;3.07;;;;;;;10.51;45.46;99640.25;10531543;28;20264;-72
2023/12/20 21:06:54;;;;;;;3.43;3.03;;;;;;;10.13;45.69;99677.00;10567675;28;20256;-73
2023/12/20 21:11:55;;;;;;;3.60;3.30;;;;;;;9.02;46.76;99745.97;10560715;27;20242;-72
2023/12/20 21:16:57;;;;;;;3.87;3.57;;;;;;;10.47;45.09;99646.97;10570697;27;20302;-73
2023/12/20 21:21:59;;;;;;;6.30;3.77;;;;;;;9.76;46.35;99610.00;10571935;27;20263;-70
2023/12/20 21:27:01;;;;;;;4.10;3.23;;;;;;;8.87;47.34;99667.69;10571497;27;20253;-72
2023/12/20 21:32:03;;;;;;;4.83;4.20;;;;;;;9.51;46.20;99684.22;10570587;27;20696;-71
2023/12/20 21:37:05;;;;;;;4.33;3.50;;;;;;;8.65;47.37;99737.59;10552337;27;20776;-71
2023/12/20 21:42:08;;;;;;;4.57;3.80;;;;;;;9.80;45.73;99665.78;10570955;27;20276;-70
2023/12/20 21:47:10;;;;;;;3.50;3.20;;;;;;;9.56;47.39;99542.94;10555498;27;20252;-70
2023/12/20 21:52:11;;;;;;;3.60;3.30;;;;;;;7.72;50.03;99588.94;10568072;27;20229;-70
2023/12/20 21:57:13;;;;;;;5.37;3.30;;;;;;;8.28;48.81;99618.25;10562941;27;20307;-72
2023/12/20 22:02:15;;;;;;;4.97;3.33;;;;;;;6.86;50.31;99796.00;10567142;28;20233;-72
2023/12/20 22:07:18;;;;;;;3.30;3.00;;;;;;;8.45;48.65;99633.19;10564729;27;20261;-73
2023/12/20 22:12:19;;;;;;;4.23;3.73;;;;;;;9.74;46.82;99550.59;10569167;27;20295;-71
2023/12/20 22:17:22;;;;;;;4.83;3.90;;;;;;;9.44;47.18;99611.16;10574360;27;20265;-71
2023/12/20 22:22:24;;;;;;;3.53;3.07;;;;;;;8.37;48.42;99712.38;10547808;27;20245;-71
2023/12/20 22:27:25;;;;;;;3.73;3.43;;;;;;;7.82;48.61;99764.59;10568078;27;20664;-71
2023/12/20 22:32:28;;;;;;;3.67;3.20;;;;;;;9.51;47.91;99520.47;10568366;27;20248;-73
2023/12/20 22:37:29;;;;;;;4.53;3.80;;;;;;;9.44;47.50;99523.03;10569831;27;20314;-71
2023/12/20 22:42:31;;;;;;;4.97;3.00;;;;;;;9.31;47.49;99550.34;10569884;27;20335;-71
2023/12/20 22:47:33;;;;;;;3.47;3.17;;;;;;;8.91;47.85;99597.78;10554059;28;20268;-71
2023/12/20 22:52:34;;;;;;;4.40;3.20;;;;;;;10.18;45.24;99671.09;10565322;28;20274;-71
2023/12/20 22:57:36;;;;;;;5.23;3.53;;;;;;;9.07;48.37;99519.41;10562825;28;20252;-72
2023/12/20 23:02:38;;;;;;;4.27;3.83;;;;;;;7.96;48.28;99676.00;10563717;28;20237;-71
2023/12/20 23:07:40;;;;;;;2.90;2.70;;;;;;;7.08;49.82;99764.47;10561145;28;20225;-71
2023/12/20 23:12:41;;;;;;;6.93;3.70;;;;;;;10.44;45.27;99596.53;10564631;28;20694;-71
2023/12/20 23:17:43;;;;;;;3.87;3.57;;;;;;;9.25;47.27;99619.69;10564086;28;20536;-70
2023/12/20 23:22:45;;;;;;;3.70;3.40;;;;;;;10.36;45.16;99635.94;10561699;28;20237;-71
2023/12/20 23:27:49;;;;;;;4.00;3.53;;;;;;;9.09;47.00;99712.22;10551696;28;20711;-72
2023/12/20 23:32:51;;;;;;;3.50;3.00;;;;;;;10.10;47.17;99524.97;10561760;28;20233;-72
2023/12/20 23:37:53;;;;;;;3.70;3.40;;;;;;;11.20;44.32;99638.97;10563923;28;20249;-71